Time;durP1;ratioP1;P1;durP2;ratioP2;P2;SDS_P1;SDS_P2;PMS_P1;PMS_P2;Temp;Humidity;BMP_temperature;BMP_pressure;BME280_temperature;BME280_humidity;BME280_pressure;Samples;Min_cycle;Max_cycle;Signal;HPM_P1;HPM_P2
2022/10/21 00:00:23;;;;;;;18.70;13.68;;;;;;;;;;5022623;28;20030;-74
2022/10/21 00:02:51;;;;;;;17.23;11.55;;;;;;;;;;5011127;28;20109;-74
2022/10/21 00:05:17;;;;;;;14.85;11.13;;;;;;;;;;4993467;28;20034;-74
2022/10/21 00:07:45;;;;;;;12.82;10.23;;;;;;;;;;5010901;28;20026;-75
2022/10/21 00:10:16;;;;;;;18.35;11.00;;;;;;;;;;5004381;28;20035;-75
2022/10/21 00:12:44;;;;;;;14.68;11.52;;;;;;;;;;5010763;28;20037;-75
2022/10/21 00:15:10;;;;;;;15.38;12.30;;;;;;;;;;5006811;28;20038;-75
2022/10/21 00:17:39;;;;;;;12.77;11.30;;;;;;;;;;5001443;28;20038;-75
2022/10/21 00:20:08;;;;;;;12.60;10.40;;;;;;;;;;5007588;28;20030;-75
2022/10/21 00:22:34;;;;;;;11.32;9.88;;;;;;;;;;4994960;28;20034;-75
2022/10/21 00:25:02;;;;;;;12.60;9.75;;;;;;;;;;4999925;28;20499;-75
2022/10/21 00:27:28;;;;;;;11.63;9.85;;;;;;;;;;5002388;28;20033;-75
2022/10/21 00:29:56;;;;;;;12.68;9.70;;;;;;;;;;5004858;28;20121;-75
2022/10/21 00:32:22;;;;;;;14.05;9.73;;;;;;;;;;5012406;28;20026;-75
2022/10/21 00:34:54;;;;;;;14.80;10.80;;;;;;;;;;5008411;28;20150;-75
2022/10/21 00:37:24;;;;;;;12.73;9.52;;;;;;;;;;5025398;28;20399;-74
2022/10/21 00:39:53;;;;;;;12.98;10.25;;;;;;;;;;5009814;28;20395;-74
2022/10/21 00:42:20;;;;;;;13.50;9.48;;;;;;;;;;5002313;28;20044;-74
2022/10/21 00:45:03;;;;;;;14.23;9.43;;;;;;;;;;5009024;28;20030;-74
2022/10/21 00:47:30;;;;;;;13.98;9.95;;;;;;;;;;5007492;28;20803;-74
2022/10/21 00:50:00;;;;;;;12.57;10.38;;;;;;;;;;5007935;28;20045;-74
2022/10/21 00:52:30;;;;;;;29.23;11.30;;;;;;;;;;5011254;28;20480;-74
2022/10/21 00:55:04;;;;;;;12.93;10.60;;;;;;;;;;5006711;28;20030;-74
2022/10/21 00:57:33;;;;;;;17.90;10.25;;;;;;;;;;5005350;28;20042;-73
2022/10/21 01:00:00;;;;;;;14.45;10.23;;;;;;;;;;5004798;28;20543;-74
2022/10/21 01:02:29;;;;;;;18.02;9.73;;;;;;;;;;5008997;28;20279;-74
2022/10/21 01:04:56;;;;;;;22.33;11.38;;;;;;;;;;4997488;28;20041;-74
2022/10/21 01:07:23;;;;;;;18.35;12.63;;;;;;;;;;5005549;28;20053;-74
2022/10/21 01:09:51;;;;;;;19.55;12.90;;;;;;;;;;5008531;28;20026;-74
2022/10/21 01:12:33;;;;;;;15.98;11.90;;;;;;;;;;4987045;28;20397;-74
2022/10/21 01:15:05;;;;;;;13.63;10.18;;;;;;;;;;5009816;28;20037;-74
2022/10/21 01:17:41;;;;;;;23.05;12.82;;;;;;;;;;5026751;28;20030;-74
2022/10/21 01:20:28;;;;;;;19.02;9.43;;;;;;;;;;5004423;28;20042;-74
2022/10/21 01:23:13;;;;;;;12.43;8.68;;;;;;;;;;5004840;28;20142;-74
2022/10/21 01:25:38;;;;;;;13.43;9.48;;;;;;;;;;4985872;28;20377;-73
2022/10/21 01:28:12;;;;;;;17.90;9.73;;;;;;;;;;5006658;28;20041;-73
2022/10/21 01:30:40;;;;;;;12.48;10.07;;;;;;;;;;5005124;28;20030;-75
2022/10/21 01:33:11;;;;;;;16.27;10.77;;;;;;;;;;5010516;28;20053;-74
2022/10/21 01:35:37;;;;;;;17.15;12.88;;;;;;;;;;5009255;28;20487;-75
2022/10/21 01:38:17;;;;;;;17.80;10.30;;;;;;;;;;5006058;28;20026;-74
2022/10/21 01:40:54;;;;;;;16.30;11.38;;;;;;;;;;5005838;28;20037;-74
2022/10/21 01:43:27;;;;;;;13.13;11.18;;;;;;;;;;5020498;28;20154;-74
2022/10/21 01:45:55;;;;;;;13.02;11.57;;;;;;;;;;5008058;28;20048;-74
2022/10/21 01:48:30;;;;;;;11.63;9.82;;;;;;;;;;5003057;28;20030;-73
2022/10/21 01:50:58;;;;;;;21.05;11.88;;;;;;;;;;5006722;28;20508;-74
2022/10/21 01:53:28;;;;;;;19.98;11.68;;;;;;;;;;5008549;28;20034;-74
2022/10/21 01:55:57;;;;;;;12.30;9.60;;;;;;;;;;5003128;28;20033;-75
2022/10/21 01:58:25;;;;;;;15.35;10.32;;;;;;;;;;5003536;28;20048;-74
2022/10/21 02:00:52;;;;;;;12.60;9.65;;;;;;;;;;5008723;28;20037;-73
2022/10/21 02:03:21;;;;;;;14.77;9.95;;;;;;;;;;5004057;28;20485;-74
2022/10/21 02:05:49;;;;;;;19.40;9.60;;;;;;;;;;5004158;28;20034;-74
2022/10/21 02:08:15;;;;;;;13.52;9.98;;;;;;;;;;4989535;28;20048;-74
2022/10/21 02:10:46;;;;;;;13.60;9.38;;;;;;;;;;5009852;28;20030;-74
2022/10/21 02:13:21;;;;;;;13.00;10.23;;;;;;;;;;5014690;28;20045;-74
2022/10/21 02:15:47;;;;;;;13.20;9.55;;;;;;;;;;4975471;28;20061;-73
2022/10/21 02:18:18;;;;;;;14.98;10.18;;;;;;;;;;5010024;28;20034;-73
2022/10/21 02:20:48;;;;;;;35.97;10.55;;;;;;;;;;5021007;28;20047;-74
2022/10/21 02:23:15;;;;;;;17.90;9.00;;;;;;;;;;5013242;28;20056;-73
2022/10/21 02:25:48;;;;;;;22.45;12.27;;;;;;;;;;4995049;28;20034;-73
2022/10/21 02:28:19;;;;;;;37.13;11.88;;;;;;;;;;5005680;28;20034;-74
2022/10/21 02:30:57;;;;;;;22.02;11.20;;;;;;;;;;5006317;28;20038;-74
2022/10/21 02:33:29;;;;;;;22.90;10.77;;;;;;;;;;5011266;28;20030;-74
2022/10/21 02:36:07;;;;;;;27.38;11.30;;;;;;;;;;5013800;28;20480;-74
2022/10/21 02:38:39;;;;;;;18.35;11.02;;;;;;;;;;5029264;28;20395;-74
2022/10/21 02:41:09;;;;;;;41.83;11.55;;;;;;;;;;5006769;28;20033;-74
2022/10/21 02:43:46;;;;;;;15.90;9.57;;;;;;;;;;5010653;28;20036;-74
2022/10/21 02:46:15;;;;;;;12.73;9.35;;;;;;;;;;5010012;28;20033;-74
2022/10/21 02:48:43;;;;;;;13.85;8.65;;;;;;;;;;5004399;28;20041;-74
2022/10/21 02:51:09;;;;;;;18.00;9.52;;;;;;;;;;5002781;28;20026;-75
2022/10/21 02:53:35;;;;;;;39.20;10.98;;;;;;;;;;5003885;28;20450;-75
2022/10/21 02:56:01;;;;;;;15.55;10.32;;;;;;;;;;4994162;28;20049;-75
2022/10/21 02:58:30;;;;;;;13.05;11.18;;;;;;;;;;4994561;28;20030;-74
2022/10/21 03:00:59;;;;;;;14.10;9.77;;;;;;;;;;5008983;28;20030;-74
2022/10/21 03:03:25;;;;;;;11.68;9.52;;;;;;;;;;5018593;28;20045;-74
2022/10/21 03:05:53;;;;;;;14.35;11.35;;;;;;;;;;5023172;28;20480;-74
2022/10/21 03:08:19;;;;;;;20.10;10.48;;;;;;;;;;5025541;28;20034;-74
2022/10/21 03:10:47;;;;;;;12.60;9.38;;;;;;;;;;4999561;28;20069;-74
2022/10/21 03:13:13;;;;;;;14.88;9.52;;;;;;;;;;4995418;28;20030;-74
2022/10/21 03:15:41;;;;;;;12.23;9.80;;;;;;;;;;5007348;28;20042;-74
2022/10/21 03:18:12;;;;;;;9.77;7.50;;;;;;;;;;5002333;28;20030;-74
2022/10/21 03:20:40;;;;;;;9.82;8.88;;;;;;;;;;5023438;28;20030;-74
2022/10/21 03:23:06;;;;;;;10.63;8.75;;;;;;;;;;5001101;28;20026;-74
2022/10/21 03:25:32;;;;;;;15.65;9.95;;;;;;;;;;5009345;28;20037;-73
2022/10/21 03:28:02;;;;;;;12.15;9.32;;;;;;;;;;5003048;28;20045;-73
2022/10/21 03:30:28;;;;;;;13.63;9.07;;;;;;;;;;5005426;28;20029;-73
2022/10/21 03:32:54;;;;;;;13.45;9.85;;;;;;;;;;5002839;28;20085;-74
2022/10/21 03:35:20;;;;;;;12.05;10.40;;;;;;;;;;5001602;28;20034;-73
2022/10/21 03:37:53;;;;;;;14.77;9.63;;;;;;;;;;5005322;28;20033;-73
2022/10/21 03:40:19;;;;;;;10.38;7.03;;;;;;;;;;5008817;28;20037;-74
2022/10/21 03:42:50;;;;;;;15.00;10.27;;;;;;;;;;5008264;28;20030;-74
2022/10/21 03:45:15;;;;;;;14.57;10.13;;;;;;;;;;5002190;28;20033;-73
2022/10/21 03:47:41;;;;;;;19.40;14.35;;;;;;;;;;5011495;28;20034;-73
2022/10/21 03:50:07;;;;;;;12.32;8.02;;;;;;;;;;5010884;28;20038;-74
2022/10/21 03:52:33;;;;;;;9.55;8.13;;;;;;;;;;5010883;28;20045;-74
2022/10/21 03:54:59;;;;;;;12.90;8.95;;;;;;;;;;5005489;28;20474;-74
2022/10/21 03:57:25;;;;;;;13.38;10.32;;;;;;;;;;5007074;28;20061;-74
2022/10/21 03:59:51;;;;;;;13.93;9.95;;;;;;;;;;5009238;28;20048;-74
2022/10/21 04:02:17;;;;;;;15.20;10.70;;;;;;;;;;5009342;28;20029;-75
2022/10/21 04:04:43;;;;;;;36.35;13.32;;;;;;;;;;5004444;28;20054;-75
2022/10/21 04:07:09;;;;;;;17.65;11.75;;;;;;;;;;5007743;28;20038;-75
2022/10/21 04:09:39;;;;;;;16.17;10.57;;;;;;;;;;5004978;28;20025;-75
2022/10/21 04:12:05;;;;;;;29.05;11.02;;;;;;;;;;5002991;28;20026;-75
2022/10/21 04:14:31;;;;;;;18.08;10.38;;;;;;;;;;5011656;28;20030;-75
2022/10/21 04:16:59;;;;;;;21.23;11.77;;;;;;;;;;5011119;28;20474;-75
2022/10/21 04:19:42;;;;;;;18.23;10.88;;;;;;;;;;5012381;28;20030;-72
2022/10/21 04:22:10;;;;;;;23.80;12.27;;;;;;;;;;5004994;28;20377;-72
2022/10/21 04:24:39;;;;;;;16.45;12.20;;;;;;;;;;5010403;28;20042;-72
2022/10/21 04:27:07;;;;;;;44.47;13.35;;;;;;;;;;5009986;28;20040;-73
2022/10/21 04:29:32;;;;;;;22.98;12.15;;;;;;;;;;5009065;28;20026;-73
2022/10/21 04:32:01;;;;;;;25.52;12.52;;;;;;;;;;5009874;28;20029;-73
2022/10/21 04:34:26;;;;;;;23.48;12.48;;;;;;;;;;5011256;28;20037;-73
2022/10/21 04:36:57;;;;;;;13.60;9.52;;;;;;;;;;5005971;28;20041;-72
2022/10/21 04:39:25;;;;;;;17.45;12.02;;;;;;;;;;5012824;28;20491;-73
2022/10/21 04:41:56;;;;;;;14.20;11.43;;;;;;;;;;5018944;28;20034;-73
2022/10/21 04:44:24;;;;;;;15.02;10.60;;;;;;;;;;5002884;28;20034;-73
2022/10/21 04:46:50;;;;;;;14.13;10.38;;;;;;;;;;5002328;28;20087;-74
2022/10/21 04:49:18;;;;;;;11.77;10.60;;;;;;;;;;5025525;28;20033;-73
2022/10/21 04:51:44;;;;;;;28.35;25.45;;;;;;;;;;5026222;22;20036;-72
2022/10/21 04:54:12;;;;;;;24.55;18.17;;;;;;;;;;5033953;28;20052;-72
2022/10/21 04:56:39;;;;;;;13.75;10.25;;;;;;;;;;5039861;28;20114;-72
2022/10/21 04:59:05;;;;;;;19.27;11.43;;;;;;;;;;5052169;28;20494;-72
2022/10/21 05:01:31;;;;;;;15.05;11.77;;;;;;;;;;5036691;28;20091;-73
2022/10/21 05:04:02;;;;;;;15.48;10.18;;;;;;;;;;5040141;28;20483;-73
2022/10/21 05:06:27;;;;;;;16.05;9.68;;;;;;;;;;5012444;28;20038;-74
2022/10/21 05:08:58;;;;;;;15.73;9.05;;;;;;;;;;4979549;28;20021;-73
2022/10/21 05:11:24;;;;;;;10.85;9.70;;;;;;;;;;5030937;28;20025;-73
2022/10/21 05:13:54;;;;;;;17.00;10.82;;;;;;;;;;5022069;28;20399;-73
2022/10/21 05:16:23;;;;;;;13.43;11.50;;;;;;;;;;5016493;28;20029;-73
2022/10/21 05:18:49;;;;;;;14.85;11.68;;;;;;;;;;5032044;28;20029;-73
2022/10/21 05:21:17;;;;;;;14.85;9.13;;;;;;;;;;5029666;28;20026;-74
2022/10/21 05:23:42;;;;;;;14.45;8.65;;;;;;;;;;5029519;28;20037;-74
2022/10/21 05:26:08;;;;;;;18.30;9.73;;;;;;;;;;5010260;28;20044;-73
2022/10/21 05:28:36;;;;;;;16.50;10.75;;;;;;;;;;5028403;28;20029;-73
2022/10/21 05:31:02;;;;;;;15.52;11.38;;;;;;;;;;5006927;28;20123;-72
2022/10/21 05:33:28;;;;;;;14.77;9.35;;;;;;;;;;5035199;28;20036;-71
2022/10/21 05:35:59;;;;;;;17.80;10.38;;;;;;;;;;5029208;28;20403;-71
2022/10/21 05:38:28;;;;;;;12.65;9.23;;;;;;;;;;5030401;28;20040;-71
2022/10/21 05:40:54;;;;;;;12.43;10.93;;;;;;;;;;5006379;28;20388;-72
2022/10/21 05:43:22;;;;;;;19.55;10.63;;;;;;;;;;5027410;28;20044;-72
2022/10/21 05:45:48;;;;;;;11.70;9.88;;;;;;;;;;5012652;28;20105;-73
2022/10/21 05:48:17;;;;;;;14.75;9.20;;;;;;;;;;5012954;28;20119;-73
2022/10/21 05:50:50;;;;;;;17.17;10.85;;;;;;;;;;4995404;28;20025;-73
2022/10/21 05:53:16;;;;;;;11.27;9.18;;;;;;;;;;5020633;28;20487;-73
2022/10/21 05:55:41;;;;;;;11.70;9.05;;;;;;;;;;5030049;28;20029;-74
2022/10/21 05:58:07;;;;;;;15.02;9.98;;;;;;;;;;5013667;28;20033;-74
2022/10/21 06:00:35;;;;;;;11.98;8.35;;;;;;;;;;5015172;28;20056;-74
2022/10/21 06:03:06;;;;;;;10.77;7.63;;;;;;;;;;5012824;28;20029;-73
2022/10/21 06:05:32;;;;;;;11.50;9.27;;;;;;;;;;5030579;28;20045;-73
2022/10/21 06:07:57;;;;;;;11.55;7.47;;;;;;;;;;5023159;28;20025;-73
2022/10/21 06:10:28;;;;;;;12.80;9.60;;;;;;;;;;5016718;28;20037;-73
2022/10/21 06:12:56;;;;;;;15.95;9.93;;;;;;;;;;5028844;28;20040;-73
2022/10/21 06:15:24;;;;;;;15.48;9.55;;;;;;;;;;5032559;28;20029;-73
2022/10/21 06:17:50;;;;;;;14.57;8.32;;;;;;;;;;4993048;28;20040;-73
2022/10/21 06:20:19;;;;;;;8.55;7.55;;;;;;;;;;5020313;28;20048;-73
2022/10/21 06:22:47;;;;;;;12.35;8.30;;;;;;;;;;5012757;28;20034;-73
2022/10/21 06:25:13;;;;;;;9.32;7.68;;;;;;;;;;5031928;28;20037;-74
2022/10/21 06:27:43;;;;;;;11.65;8.18;;;;;;;;;;5012135;28;20029;-74
2022/10/21 06:30:14;;;;;;;11.68;8.65;;;;;;;;;;5023206;28;20042;-73
2022/10/21 06:32:42;;;;;;;15.27;9.65;;;;;;;;;;5030169;28;20036;-73
2022/10/21 06:35:11;;;;;;;17.40;10.00;;;;;;;;;;5028878;28;20040;-73
2022/10/21 06:37:39;;;;;;;12.75;8.70;;;;;;;;;;5010967;28;20487;-72
2022/10/21 06:40:05;;;;;;;11.75;9.00;;;;;;;;;;5028781;28;20030;-72
2022/10/21 06:42:33;;;;;;;10.30;9.20;;;;;;;;;;5029658;28;20025;-73
2022/10/21 06:45:01;;;;;;;13.45;8.95;;;;;;;;;;5029669;28;20464;-74
2022/10/21 06:47:29;;;;;;;10.68;7.82;;;;;;;;;;5028186;28;20387;-73
2022/10/21 06:50:02;;;;;;;11.00;8.70;;;;;;;;;;5010586;28;20407;-73
2022/10/21 06:52:31;;;;;;;13.02;9.90;;;;;;;;;;5026808;28;20506;-72
2022/10/21 06:54:57;;;;;;;10.55;8.48;;;;;;;;;;5032764;28;20018;-73
2022/10/21 06:57:29;;;;;;;12.10;7.55;;;;;;;;;;5029030;28;20487;-73
2022/10/21 07:00:00;;;;;;;10.73;7.93;;;;;;;;;;4991256;28;20030;-73
2022/10/21 07:02:26;;;;;;;13.30;10.13;;;;;;;;;;5027381;28;20037;-73
2022/10/21 07:04:52;;;;;;;9.20;6.47;;;;;;;;;;5032247;28;20095;-73
2022/10/21 07:07:18;;;;;;;11.55;9.15;;;;;;;;;;5028851;28;20420;-73
2022/10/21 07:09:44;;;;;;;11.57;8.98;;;;;;;;;;5022320;28;20033;-73
2022/10/21 07:12:12;;;;;;;10.50;8.38;;;;;;;;;;5034163;28;20454;-72
2022/10/21 07:14:40;;;;;;;12.30;9.73;;;;;;;;;;5033754;28;20283;-73
2022/10/21 07:17:06;;;;;;;12.05;8.25;;;;;;;;;;5033739;28;20029;-73
2022/10/21 07:19:34;;;;;;;15.63;11.13;;;;;;;;;;5036023;28;20033;-73
2022/10/21 07:22:00;;;;;;;15.10;8.95;;;;;;;;;;5031883;28;20108;-73
2022/10/21 07:24:26;;;;;;;12.80;9.55;;;;;;;;;;5032439;28;20038;-73
2022/10/21 07:26:52;;;;;;;12.88;10.70;;;;;;;;;;5018622;28;20049;-73
2022/10/21 07:29:22;;;;;;;13.38;10.15;;;;;;;;;;5029707;28;20029;-72
2022/10/21 07:31:48;;;;;;;8.63;7.43;;;;;;;;;;5030302;28;20391;-73
2022/10/21 07:34:17;;;;;;;10.13;8.38;;;;;;;;;;5034498;28;20096;-73
2022/10/21 07:36:51;;;;;;;13.63;8.25;;;;;;;;;;5016410;28;20033;-73
2022/10/21 07:39:21;;;;;;;13.75;8.43;;;;;;;;;;5038875;28;20044;-73
2022/10/21 07:41:53;;;;;;;12.23;9.25;;;;;;;;;;5029389;28;20551;-73
2022/10/21 07:44:22;;;;;;;11.40;9.10;;;;;;;;;;5013826;28;20045;-74
2022/10/21 07:46:51;;;;;;;13.15;9.10;;;;;;;;;;5010357;28;20030;-73
2022/10/21 07:49:18;;;;;;;17.50;10.02;;;;;;;;;;5026436;28;20041;-74
2022/10/21 07:51:49;;;;;;;11.35;9.07;;;;;;;;;;5027177;28;20026;-74
2022/10/21 07:54:20;;;;;;;14.40;9.23;;;;;;;;;;4999907;28;20041;-74
2022/10/21 07:56:50;;;;;;;9.98;8.93;;;;;;;;;;5032125;28;20021;-73
2022/10/21 07:59:17;;;;;;;10.30;8.00;;;;;;;;;;5033708;28;20494;-73
2022/10/21 08:01:48;;;;;;;11.70;8.55;;;;;;;;;;5030568;28;20037;-74
2022/10/21 08:04:17;;;;;;;10.48;9.38;;;;;;;;;;5013589;28;20403;-73
2022/10/21 08:06:46;;;;;;;9.55;8.50;;;;;;;;;;5000740;28;20505;-74
2022/10/21 08:09:13;;;;;;;13.57;9.23;;;;;;;;;;5004936;28;20487;-73
2022/10/21 08:11:41;;;;;;;9.75;8.75;;;;;;;;;;5031247;28;20026;-74
2022/10/21 08:14:11;;;;;;;14.63;8.73;;;;;;;;;;5028959;28;20030;-73
2022/10/21 08:16:37;;;;;;;13.13;8.80;;;;;;;;;;5030974;28;20395;-73
2022/10/21 08:19:03;;;;;;;17.02;9.38;;;;;;;;;;5033063;28;20037;-73
2022/10/21 08:21:34;;;;;;;10.25;9.20;;;;;;;;;;5037571;28;20383;-74
2022/10/21 08:24:03;;;;;;;14.13;10.13;;;;;;;;;;5007733;28;20037;-74
2022/10/21 08:26:29;;;;;;;11.77;10.27;;;;;;;;;;5030837;28;20037;-74
2022/10/21 08:28:57;;;;;;;16.65;10.27;;;;;;;;;;5030450;28;20026;-73
2022/10/21 08:31:23;;;;;;;11.43;9.80;;;;;;;;;;5032318;28;20051;-73
2022/10/21 08:33:52;;;;;;;10.00;8.45;;;;;;;;;;5032578;28;20105;-73
2022/10/21 08:36:19;;;;;;;12.80;9.43;;;;;;;;;;5030753;28;20036;-73
2022/10/21 08:38:47;;;;;;;14.52;11.32;;;;;;;;;;5032143;28;20034;-73
2022/10/21 08:41:32;;;;;;;19.92;16.30;;;;;;;;;;5029320;28;20045;-73
2022/10/21 08:44:20;;;;;;;22.48;16.40;;;;;;;;;;5014761;28;20033;-73
2022/10/21 08:46:54;;;;;;;18.50;14.45;;;;;;;;;;5025264;28;20407;-73
2022/10/21 08:49:28;;;;;;;19.75;16.25;;;;;;;;;;5013957;28;20395;-73
2022/10/21 08:51:58;;;;;;;18.27;14.02;;;;;;;;;;5029998;28;20383;-73
2022/10/21 08:54:39;;;;;;;22.05;15.18;;;;;;;;;;5030227;28;20036;-74
2022/10/21 08:57:09;;;;;;;19.67;17.30;;;;;;;;;;5023742;28;20399;-73
2022/10/21 08:59:40;;;;;;;12.68;10.05;;;;;;;;;;5027382;28;20033;-73
2022/10/21 09:02:25;;;;;;;13.15;9.13;;;;;;;;;;5028818;28;20041;-73
2022/10/21 09:05:06;;;;;;;12.55;10.50;;;;;;;;;;5029557;28;20033;-73
2022/10/21 09:07:47;;;;;;;14.25;8.90;;;;;;;;;;5010827;28;20038;-73
2022/10/21 09:10:30;;;;;;;13.10;10.57;;;;;;;;;;5013420;28;20053;-73
2022/10/21 09:13:19;;;;;;;13.30;10.63;;;;;;;;;;5032229;28;20025;-73
2022/10/21 09:15:59;;;;;;;13.35;10.15;;;;;;;;;;5025726;28;20029;-74
2022/10/21 09:18:52;;;;;;;18.13;11.02;;;;;;;;;;5020170;28;20034;-73
2022/10/21 09:21:26;;;;;;;19.88;13.77;;;;;;;;;;5003385;28;20430;-73
2022/10/21 09:23:58;;;;;;;11.88;9.95;;;;;;;;;;5029008;28;20032;-73
2022/10/21 09:26:40;;;;;;;12.43;9.55;;;;;;;;;;5017863;28;20042;-73
2022/10/21 09:29:21;;;;;;;10.15;9.10;;;;;;;;;;5046770;28;20037;-72
2022/10/21 09:31:47;;;;;;;10.40;7.32;;;;;;;;;;5031858;28;20034;-73
2022/10/21 09:34:20;;;;;;;9.05;8.10;;;;;;;;;;5018594;28;20487;-73
2022/10/21 09:36:47;;;;;;;12.60;9.27;;;;;;;;;;5022289;28;20038;-73
2022/10/21 09:39:17;;;;;;;12.10;9.18;;;;;;;;;;5037062;28;20042;-73
2022/10/21 09:41:44;;;;;;;14.10;8.55;;;;;;;;;;5031648;28;20041;-73
2022/10/21 09:44:15;;;;;;;15.00;10.07;;;;;;;;;;5034718;28;20033;-73
2022/10/21 09:46:43;;;;;;;14.10;7.60;;;;;;;;;;5012317;28;20037;-73
2022/10/21 09:49:17;;;;;;;13.25;8.52;;;;;;;;;;5025877;28;21010;-73
2022/10/21 09:51:45;;;;;;;12.65;9.05;;;;;;;;;;5028569;28;20037;-73
2022/10/21 09:54:18;;;;;;;8.93;7.32;;;;;;;;;;5030424;28;20033;-72
2022/10/21 09:56:55;;;;;;;11.07;7.13;;;;;;;;;;5030782;28;20052;-73
2022/10/21 09:59:24;;;;;;;10.90;8.02;;;;;;;;;;5022111;28;20029;-73
2022/10/21 10:01:55;;;;;;;13.38;7.65;;;;;;;;;;5028499;28;20038;-73
2022/10/21 10:04:48;;;;;;;9.55;7.22;;;;;;;;;;5022471;28;20030;-72
2022/10/21 10:07:18;;;;;;;10.02;6.93;;;;;;;;;;5026082;28;20025;-73
2022/10/21 10:09:45;;;;;;;7.07;4.75;;;;;;;;;;5011811;28;20029;-72
2022/10/21 10:12:14;;;;;;;10.75;5.55;;;;;;;;;;5026068;28;20037;-73
2022/10/21 10:14:48;;;;;;;10.40;6.13;;;;;;;;;;5026999;28;20649;-74
2022/10/21 10:17:19;;;;;;;11.68;6.05;;;;;;;;;;5012778;28;20525;-73
2022/10/21 10:20:06;;;;;;;7.32;3.88;;;;;;;;;;5028884;28;20037;-73
2022/10/21 10:22:32;;;;;;;5.68;3.67;;;;;;;;;;5027967;28;20399;-73
2022/10/21 10:25:10;;;;;;;3.65;3.05;;;;;;;;;;5030144;28;20033;-73
2022/10/21 10:27:45;;;;;;;5.95;3.35;;;;;;;;;;5029443;28;20041;-73
2022/10/21 10:30:14;;;;;;;5.38;3.35;;;;;;;;;;5028893;28;20030;-73
2022/10/21 10:32:43;;;;;;;5.38;2.28;;;;;;;;;;5025136;28;20040;-73
2022/10/21 10:35:21;;;;;;;3.88;2.05;;;;;;;;;;5027521;28;20033;-73
2022/10/21 10:37:52;;;;;;;3.47;2.13;;;;;;;;;;5031976;28;20037;-73
2022/10/21 10:40:27;;;;;;;7.80;3.15;;;;;;;;;;5008383;28;20033;-72
2022/10/21 10:42:58;;;;;;;4.60;2.33;;;;;;;;;;5037029;28;20030;-72
2022/10/21 10:45:24;;;;;;;6.25;2.90;;;;;;;;;;5033159;28;20044;-74
2022/10/21 10:47:55;;;;;;;3.92;2.30;;;;;;;;;;5033694;28;20655;-72
2022/10/21 10:50:38;;;;;;;5.82;2.50;;;;;;;;;;5022875;28;20040;-73
2022/10/21 10:53:31;;;;;;;2.97;1.52;;;;;;;;;;5013328;22;20054;-82
2022/10/21 10:55:56;;;;;;;10.88;2.97;;;;;;;;;;5003335;28;20034;-82
2022/10/21 10:58:25;;;;;;;3.22;1.95;;;;;;;;;;5012052;28;21029;-81
2022/10/21 11:00:52;;;;;;;7.80;2.33;;;;;;;;;;5012563;28;20472;-82
2022/10/21 11:03:22;;;;;;;4.43;2.28;;;;;;;;;;5011098;28;20403;-82
2022/10/21 11:05:52;;;;;;;3.78;1.88;;;;;;;;;;5006426;28;20101;-77
2022/10/21 11:08:31;;;;;;;3.40;1.90;;;;;;;;;;5023093;28;20030;-77
2022/10/21 11:11:02;;;;;;;3.95;2.45;;;;;;;;;;5022852;28;20041;-77
2022/10/21 11:13:33;;;;;;;3.03;2.08;;;;;;;;;;5011888;28;20021;-77
2022/10/21 11:16:04;;;;;;;2.58;2.08;;;;;;;;;;5004603;28;20026;-77
2022/10/21 11:18:35;;;;;;;4.70;2.45;;;;;;;;;;5012525;28;20033;-77
2022/10/21 11:21:04;;;;;;;2.30;2.00;;;;;;;;;;5003852;28;20094;-78
2022/10/21 11:23:45;;;;;;;4.38;2.13;;;;;;;;;;5008581;28;20396;-78
2022/10/21 11:26:30;;;;;;;5.25;2.58;;;;;;;;;;5022917;28;20034;-78
2022/10/21 11:29:17;;;;;;;5.95;2.67;;;;;;;;;;5012322;28;20289;-77
2022/10/21 11:31:56;;;;;;;4.03;2.08;;;;;;;;;;5009949;28;20033;-79
2022/10/21 11:34:44;;;;;;;8.25;2.83;;;;;;;;;;5022927;28;20040;-80
2022/10/21 11:37:29;;;;;;;8.55;2.88;;;;;;;;;;5006378;28;20038;-80
2022/10/21 11:40:09;;;;;;;3.47;2.53;;;;;;;;;;5010069;28;20420;-81
2022/10/21 11:42:46;;;;;;;5.60;3.45;;;;;;;;;;5010605;28;20028;-80
2022/10/21 11:45:15;;;;;;;4.40;2.35;;;;;;;;;;5009466;28;20399;-80
2022/10/21 11:47:41;;;;;;;4.28;2.65;;;;;;;;;;5010925;28;20034;-80
2022/10/21 11:50:24;;;;;;;7.20;2.83;;;;;;;;;;5010780;28;20117;-81
2022/10/21 11:52:56;;;;;;;4.45;2.28;;;;;;;;;;5009940;28;20369;-81
2022/10/21 11:55:37;;;;;;;3.47;1.88;;;;;;;;;;5008812;28;20388;-79
2022/10/21 11:58:22;;;;;;;4.30;2.25;;;;;;;;;;5027882;28;20037;-79
2022/10/21 12:00:53;;;;;;;6.40;2.33;;;;;;;;;;5008841;28;20034;-81
2022/10/21 12:03:39;;;;;;;8.00;3.67;;;;;;;;;;5010659;28;20026;-81
2022/10/21 12:06:19;;;;;;;3.97;1.95;;;;;;;;;;5021797;28;20037;-82
2022/10/21 12:08:49;;;;;;;4.07;2.63;;;;;;;;;;5006022;28;20626;-81
2022/10/21 12:11:24;;;;;;;5.15;1.88;;;;;;;;;;5004493;28;20508;-80
2022/10/21 12:13:53;;;;;;;9.75;3.20;;;;;;;;;;5026508;28;20022;-80
2022/10/21 12:16:26;;;;;;;;;;;;;;;;;;5008814;28;20056;-81
2022/10/21 12:18:56;;;;;;;7.05;2.75;;;;;;;;;;5009592;28;19913;-77
2022/10/21 12:21:24;;;;;;;3.33;2.00;;;;;;;;;;4974993;28;20033;-82
2022/10/21 12:23:52;;;;;;;7.82;3.47;;;;;;;;;;5021193;28;20041;-81
2022/10/21 12:26:25;;;;;;;4.10;2.28;;;;;;;;;;5023797;28;20042;-81
2022/10/21 12:28:57;;;;;;;4.10;2.05;;;;;;;;;;5026637;28;20098;-81
2022/10/21 12:31:27;;;;;;;4.75;2.17;;;;;;;;;;5013313;28;20034;-81
2022/10/21 12:33:58;;;;;;;4.07;2.58;;;;;;;;;;5012924;28;20026;-81
2022/10/21 12:36:27;;;;;;;4.85;2.17;;;;;;;;;;5000422;28;20034;-81
2022/10/21 12:38:56;;;;;;;4.80;2.78;;;;;;;;;;4991808;28;20030;-81
2022/10/21 12:41:22;;;;;;;5.50;2.10;;;;;;;;;;4993530;28;20026;-81
2022/10/21 12:43:52;;;;;;;3.42;1.55;;;;;;;;;;4993467;28;20397;-81
2022/10/21 12:46:24;;;;;;;3.90;2.33;;;;;;;;;;5017164;28;20025;-81
2022/10/21 12:48:53;;;;;;;2.97;2.20;;;;;;;;;;5019704;28;20507;-80
2022/10/21 12:51:31;;;;;;;5.97;3.05;;;;;;;;;;5027839;28;20026;-80
2022/10/21 12:54:02;;;;;;;8.85;2.33;;;;;;;;;;5012854;28;20040;-81
2022/10/21 12:56:48;;;;;;;5.85;3.33;;;;;;;;;;5005194;28;20038;-81
2022/10/21 12:59:32;;;;;;;5.97;3.30;;;;;;;;;;5012843;28;20030;-81
2022/10/21 13:02:04;;;;;;;5.10;2.70;;;;;;;;;;5008291;28;20030;-81
2022/10/21 13:04:33;;;;;;;6.80;3.05;;;;;;;;;;4995232;28;20037;-81
2022/10/21 13:07:02;;;;;;;3.20;2.20;;;;;;;;;;5011816;28;20468;-81
2022/10/21 13:09:40;;;;;;;10.95;2.78;;;;;;;;;;5003114;28;20045;-79
2022/10/21 13:12:07;;;;;;;14.48;4.20;;;;;;;;;;5000489;28;20057;-80
2022/10/21 13:14:46;;;;;;;4.35;1.83;;;;;;;;;;5000452;28;20030;-80
2022/10/21 13:17:21;;;;;;;6.80;2.25;;;;;;;;;;5000864;28;20034;-80
2022/10/21 13:19:47;;;;;;;5.32;1.95;;;;;;;;;;5007705;28;20060;-80
2022/10/21 13:22:34;;;;;;;3.90;1.83;;;;;;;;;;5001535;28;20030;-80
2022/10/21 13:25:09;;;;;;;5.53;2.80;;;;;;;;;;5012515;28;20408;-81
2022/10/21 13:27:43;;;;;;;3.78;2.08;;;;;;;;;;5002060;28;20057;-80
2022/10/21 13:30:26;;;;;;;6.35;2.33;;;;;;;;;;5002544;28;20037;-80
2022/10/21 13:33:04;;;;;;;4.55;2.20;;;;;;;;;;4986849;28;20418;-80
2022/10/21 13:35:35;;;;;;;3.50;2.17;;;;;;;;;;4992774;28;20036;-80
2022/10/21 13:38:06;;;;;;;4.90;1.92;;;;;;;;;;4999360;28;20396;-80
2022/10/21 13:40:38;;;;;;;3.28;1.98;;;;;;;;;;5008055;28;20033;-80
2022/10/21 13:43:13;;;;;;;3.67;2.03;;;;;;;;;;4994690;28;20068;-80
2022/10/21 13:45:44;;;;;;;5.28;1.95;;;;;;;;;;4995165;28;20042;-80
2022/10/21 13:48:25;;;;;;;5.80;2.85;;;;;;;;;;4992406;28;20031;-80
2022/10/21 13:50:52;;;;;;;5.50;2.08;;;;;;;;;;5002117;28;20026;-80
2022/10/21 13:53:24;;;;;;;4.90;2.78;;;;;;;;;;5028033;28;20109;-80
2022/10/21 13:55:57;;;;;;;3.65;2.58;;;;;;;;;;5006692;28;20484;-80
2022/10/21 13:58:26;;;;;;;3.33;2.10;;;;;;;;;;5005966;28;20041;-80
2022/10/21 14:01:05;;;;;;;3.42;1.90;;;;;;;;;;4999495;28;20037;-80
2022/10/21 14:03:34;;;;;;;9.05;2.03;;;;;;;;;;5011661;28;20026;-80
2022/10/21 14:06:00;;;;;;;5.00;2.13;;;;;;;;;;4995611;28;20511;-80
2022/10/21 14:08:47;;;;;;;4.07;1.95;;;;;;;;;;4992188;28;20030;-80
2022/10/21 14:11:29;;;;;;;5.05;2.58;;;;;;;;;;5005629;28;20037;-80
2022/10/21 14:14:00;;;;;;;2.80;2.13;;;;;;;;;;5013620;28;20022;-80
2022/10/21 14:16:29;;;;;;;2.42;2.08;;;;;;;;;;5008157;28;20049;-80
2022/10/21 14:18:55;;;;;;;4.55;1.98;;;;;;;;;;4997874;28;20038;-80
2022/10/21 14:21:24;;;;;;;6.72;1.75;;;;;;;;;;4998630;28;20026;-80
2022/10/21 14:23:50;;;;;;;3.45;2.05;;;;;;;;;;5010298;28;20026;-80
2022/10/21 14:26:19;;;;;;;4.78;2.10;;;;;;;;;;5014418;28;20037;-80
2022/10/21 14:28:49;;;;;;;3.92;1.40;;;;;;;;;;5007860;28;20033;-80
2022/10/21 14:31:16;;;;;;;8.10;2.88;;;;;;;;;;5016740;28;20388;-80
2022/10/21 14:33:48;;;;;;;5.38;1.92;;;;;;;;;;5017160;28;20037;-80
2022/10/21 14:36:14;;;;;;;4.53;2.10;;;;;;;;;;5011144;28;20030;-80
2022/10/21 14:38:42;;;;;;;6.88;1.98;;;;;;;;;;4994289;28;20057;-81
2022/10/21 14:41:12;;;;;;;5.13;2.35;;;;;;;;;;4996939;28;20038;-80
2022/10/21 14:43:46;;;;;;;4.65;2.67;;;;;;;;;;4999006;28;20045;-80
2022/10/21 14:46:16;;;;;;;5.40;4.60;;;;;;;;;;4993274;28;20045;-80
2022/10/21 14:48:47;;;;;;;3.60;2.00;;;;;;;;;;5015668;28;20038;-80
2022/10/21 14:51:14;;;;;;;5.18;2.95;;;;;;;;;;5000595;28;20041;-80